Terminal Aerodrome Forecast
Issued by NWS Spokane, WA

Home | Current Version | Previous Version | Text Only | Print | Product List | Glossary On
Versions: 1 2 3 4 5 6 7 8 9 10 11 12 13 14 15 16
000
FTUS46 KOTX 252342 CCA
TAFEAT
TAF COR
KEAT 252342Z 2600/2624 09004KT P6SM BKN080
     FM260300 32006KT P6SM FEW060
     FM261000 30005KT P6SM BKN250
     FM261900 12004KT P6SM SKC=

USA.gov is the U.S. government's official web portal to all federal, state and local government web resources and services.